createdAt,value
2023-06-17T01:40:57.794Z,17.00
2023-06-17T01:43:27.953Z,16.96
2023-06-17T01:45:58.723Z,16.92
2023-06-17T01:48:28.874Z,16.87
2023-06-17T01:51:07.452Z,16.81
2023-06-17T01:53:34.493Z,16.74
2023-06-17T01:56:21.472Z,16.69
2023-06-17T01:58:57.295Z,16.67
2023-06-17T02:01:25.284Z,16.63
2023-06-17T02:03:53.038Z,16.59
2023-06-17T02:06:20.066Z,16.57
2023-06-17T02:08:49.331Z,16.55
2023-06-17T02:11:16.283Z,16.50
2023-06-17T02:14:03.480Z,16.46
2023-06-17T02:16:39.786Z,16.46
2023-06-17T02:19:07.051Z,16.44
2023-06-17T02:21:34.542Z,16.40
2023-06-17T02:24:25.416Z,16.36
2023-06-17T02:26:52.209Z,16.32
2023-06-17T02:29:25.463Z,16.31
2023-06-17T02:31:53.132Z,16.29
2023-06-17T02:34:22.018Z,16.29
2023-06-17T02:36:58.715Z,16.26
2023-06-17T02:39:57.705Z,16.24
2023-06-17T02:42:25.000Z,16.22
2023-06-17T02:44:52.200Z,16.21
2023-06-17T02:47:19.111Z,16.19
2023-06-17T02:49:46.666Z,16.12
2023-06-17T02:52:13.760Z,16.07
2023-06-17T02:54:43.235Z,16.05
2023-06-17T02:57:13.744Z,16.00
2023-06-17T02:59:41.305Z,16.00
2023-06-17T03:02:08.431Z,16.00
2023-06-17T03:04:36.561Z,15.99
2023-06-17T03:07:06.919Z,15.99
2023-06-17T03:09:34.199Z,16.01
2023-06-17T03:12:04.315Z,16.03
2023-06-17T03:14:31.805Z,16.03
2023-06-17T03:17:00.138Z,16.03
2023-06-17T03:19:27.664Z,16.05
2023-06-17T03:21:56.696Z,16.05
2023-06-17T03:24:25.832Z,16.04
2023-06-17T03:26:54.154Z,16.02
2023-06-17T03:29:21.480Z,16.01
2023-06-17T03:31:49.600Z,15.98
2023-06-17T03:34:16.270Z,15.97
2023-06-17T03:36:47.788Z,15.96
2023-06-17T03:39:14.836Z,15.95
2023-06-17T03:41:42.259Z,15.95
2023-06-17T03:44:09.353Z,15.95
2023-06-17T03:46:36.279Z,15.97
2023-06-17T03:49:03.345Z,16.00
2023-06-17T03:51:30.133Z,16.02
2023-06-17T03:53:57.521Z,16.04
2023-06-17T03:56:27.276Z,16.07
2023-06-17T03:58:54.538Z,16.08
2023-06-17T04:01:21.848Z,16.06
2023-06-17T04:03:49.639Z,16.09
2023-06-17T04:06:17.781Z,16.13
2023-06-17T04:08:47.333Z,16.18
2023-06-17T04:11:15.624Z,16.23
2023-06-17T04:13:42.396Z,16.25
2023-06-17T04:16:09.165Z,16.27
2023-06-17T04:18:35.715Z,16.29
2023-06-17T04:21:02.580Z,16.33
2023-06-17T04:23:31.073Z,16.34
2023-06-17T04:25:58.108Z,16.37
2023-06-17T04:28:24.849Z,16.38
2023-06-17T04:30:53.447Z,16.38
2023-06-17T04:33:20.348Z,16.40
2023-06-17T04:35:47.716Z,16.41
2023-06-17T04:38:17.013Z,16.40
2023-06-17T04:40:46.066Z,16.41
2023-06-17T04:43:13.403Z,16.37
2023-06-17T04:45:40.845Z,16.39
2023-06-17T04:48:07.699Z,16.44
2023-06-17T04:50:35.997Z,16.51
2023-06-17T04:53:05.607Z,16.59
2023-06-17T04:55:35.933Z,16.59
2023-06-17T04:58:05.825Z,16.55
2023-06-17T05:00:39.232Z,16.57
2023-06-17T05:03:06.761Z,16.59
2023-06-17T05:05:33.932Z,16.67
2023-06-17T05:08:03.194Z,16.77
2023-06-17T05:10:33.074Z,16.89
2023-06-17T05:13:01.316Z,17.00
2023-06-17T05:15:31.627Z,17.09
2023-06-17T05:17:58.612Z,17.15
2023-06-17T05:20:26.906Z,17.24
2023-06-17T05:22:54.306Z,17.32
2023-06-17T05:25:21.070Z,17.45
2023-06-17T05:27:51.652Z,17.60
2023-06-17T05:30:23.868Z,17.71
2023-06-17T05:32:52.569Z,17.88
2023-06-17T05:35:20.182Z,18.02
2023-06-17T05:37:47.713Z,18.15
2023-06-17T05:40:17.558Z,18.28
2023-06-17T05:42:44.535Z,18.43
2023-06-17T05:45:12.311Z,18.56
2023-06-17T05:47:39.683Z,18.71
2023-06-17T05:50:09.010Z,18.85
2023-06-17T05:52:37.791Z,19.01
2023-06-17T05:55:06.140Z,19.09
2023-06-17T05:57:33.215Z,19.19
2023-06-17T06:00:03.619Z,19.29
2023-06-17T06:02:40.053Z,19.33
2023-06-17T06:05:08.579Z,19.43
2023-06-17T06:07:35.256Z,19.53
2023-06-17T06:10:05.855Z,19.59
2023-06-17T06:12:36.111Z,19.73
2023-06-17T06:15:07.796Z,19.75
2023-06-17T06:17:39.149Z,19.86
2023-06-17T06:20:08.775Z,19.93
2023-06-17T06:22:35.389Z,20.00
2023-06-17T06:25:02.914Z,20.08
2023-06-17T06:27:33.011Z,20.18
2023-06-17T06:30:10.889Z,20.28
2023-06-17T06:32:42.456Z,20.34
2023-06-17T06:35:11.929Z,20.37
2023-06-17T06:37:38.661Z,20.45
2023-06-17T06:40:06.554Z,20.53
2023-06-17T06:42:40.245Z,20.59
2023-06-17T06:45:24.371Z,20.65
2023-06-17T06:47:55.826Z,20.77
2023-06-17T06:50:25.519Z,20.89
2023-06-17T06:52:59.109Z,20.98
2023-06-17T06:55:26.924Z,21.12
2023-06-17T06:57:54.244Z,21.15
2023-06-17T07:00:24.636Z,21.22
2023-06-17T07:02:51.195Z,21.24
2023-06-17T07:05:23.401Z,21.36
2023-06-17T07:07:56.265Z,21.45
2023-06-17T07:10:25.615Z,21.49
2023-06-17T07:12:57.031Z,21.64
2023-06-17T07:15:34.437Z,21.81
2023-06-17T07:18:09.149Z,21.91
2023-06-17T07:20:42.212Z,22.02
2023-06-17T07:23:09.987Z,22.20
2023-06-17T07:25:39.309Z,22.31
2023-06-17T07:28:07.728Z,22.31
2023-06-17T07:30:34.984Z,22.39
2023-06-17T07:33:01.961Z,22.49
2023-06-17T07:35:33.549Z,22.64
2023-06-17T07:38:00.405Z,22.75
2023-06-17T07:40:27.614Z,22.80
2023-06-17T07:42:54.281Z,22.86
2023-06-17T07:45:21.838Z,22.95
2023-06-17T07:47:50.944Z,23.07
2023-06-17T07:50:17.559Z,23.11
2023-06-17T07:52:46.554Z,23.12
2023-06-17T07:55:13.247Z,23.21
2023-06-17T07:57:42.504Z,23.29
2023-06-17T08:00:10.430Z,23.35
2023-06-17T08:02:40.834Z,23.38
2023-06-17T08:05:11.290Z,23.45
2023-06-17T08:07:38.225Z,23.45
2023-06-17T08:10:09.684Z,23.53
2023-06-17T08:12:37.034Z,23.50
2023-06-17T08:15:04.290Z,23.58
2023-06-17T08:17:32.908Z,23.61
2023-06-17T08:20:39.797Z,23.69
2023-06-17T08:23:14.086Z,23.72
2023-06-17T08:25:49.868Z,23.49
2023-06-17T08:28:19.267Z,23.55
2023-06-17T08:30:52.726Z,23.65
2023-06-17T08:33:19.829Z,23.72
2023-06-17T08:35:50.807Z,23.76
2023-06-17T08:38:20.201Z,23.81
2023-06-17T08:40:49.226Z,23.92
2023-06-17T08:43:20.139Z,23.79
2023-06-17T08:45:54.036Z,23.73
2023-06-17T08:48:20.959Z,23.70
2023-06-17T08:50:50.527Z,23.76
2023-06-17T08:53:27.621Z,23.89
2023-06-17T08:55:54.102Z,23.93
2023-06-17T08:58:27.401Z,23.99
2023-06-17T09:00:58.037Z,24.04
2023-06-17T09:03:26.048Z,24.05
2023-06-17T09:05:53.983Z,24.17
2023-06-17T09:08:21.060Z,23.99
2023-06-17T09:10:47.694Z,23.79
2023-06-17T09:13:16.483Z,23.56
2023-06-17T09:15:44.173Z,23.50
2023-06-17T09:18:10.716Z,23.71
2023-06-17T09:20:39.350Z,23.90
2023-06-17T09:23:18.144Z,24.01
2023-06-17T09:25:45.047Z,24.22
2023-06-17T09:28:16.047Z,24.38
2023-06-17T09:30:53.693Z,24.35
2023-06-17T09:33:24.433Z,24.34
2023-06-17T09:36:09.219Z,24.25
2023-06-17T09:38:39.517Z,24.13
2023-06-17T09:41:14.458Z,24.09
2023-06-17T09:43:42.054Z,24.13
2023-06-17T09:46:11.709Z,24.11
2023-06-17T09:48:40.908Z,24.18
2023-06-17T09:51:12.875Z,24.28
2023-06-17T09:53:41.616Z,24.38
2023-06-17T09:56:11.581Z,24.50
2023-06-17T09:58:42.833Z,24.42
2023-06-17T10:01:11.904Z,24.30
2023-06-17T10:03:40.248Z,24.40
2023-06-17T10:06:19.758Z,24.46
2023-06-17T10:08:51.256Z,24.30
2023-06-17T10:11:24.471Z,24.36
2023-06-17T10:14:06.627Z,24.54
2023-06-17T10:16:36.934Z,24.70
2023-06-17T10:19:08.091Z,24.64
2023-06-17T10:21:38.813Z,24.41
2023-06-17T10:24:09.063Z,24.18
2023-06-17T10:26:41.803Z,24.11
2023-06-17T10:29:12.092Z,24.03
2023-06-17T10:31:43.225Z,23.96
2023-06-17T10:34:22.834Z,23.85
2023-06-17T10:36:58.401Z,23.84
2023-06-17T10:39:27.853Z,23.89
2023-06-17T10:41:59.877Z,24.06
2023-06-17T10:44:28.699Z,24.18
2023-06-17T10:47:18.916Z,24.24
2023-06-17T10:49:52.344Z,24.15
2023-06-17T10:52:19.694Z,23.92
2023-06-17T10:54:55.894Z,23.80
2023-06-17T10:57:36.357Z,23.72
2023-06-17T11:00:14.502Z,23.61
2023-06-17T11:02:41.468Z,23.46
2023-06-17T11:05:10.793Z,23.46
2023-06-17T11:07:40.027Z,23.45
2023-06-17T11:10:07.397Z,23.37
2023-06-17T11:12:39.857Z,23.31
2023-06-17T11:15:07.670Z,23.27
2023-06-17T11:17:34.193Z,23.25
2023-06-17T11:20:03.925Z,23.24
2023-06-17T11:22:30.563Z,23.23
2023-06-17T11:24:59.699Z,23.25
2023-06-17T11:27:29.678Z,23.31
2023-06-17T11:29:56.883Z,23.42
2023-06-17T11:32:29.208Z,23.56
2023-06-17T11:34:58.646Z,23.72
2023-06-17T11:37:27.509Z,23.92
2023-06-17T11:39:56.812Z,24.10
2023-06-17T11:42:25.903Z,24.32
2023-06-17T11:44:54.840Z,24.54
2023-06-17T11:47:32.569Z,24.67
2023-06-17T11:49:59.329Z,24.83
2023-06-17T11:52:25.921Z,24.96
2023-06-17T11:54:55.164Z,25.05
2023-06-17T11:57:27.041Z,25.11
2023-06-17T12:00:04.323Z,25.13
2023-06-17T12:02:38.962Z,25.25
2023-06-17T12:05:05.910Z,25.26
2023-06-17T12:07:47.519Z,25.22
2023-06-17T12:10:17.767Z,25.20
2023-06-17T12:12:46.177Z,25.15
2023-06-17T12:15:17.476Z,25.11
2023-06-17T12:17:48.881Z,25.12
2023-06-17T12:20:19.762Z,24.96
2023-06-17T12:22:49.025Z,24.92
2023-06-17T12:25:15.775Z,24.97
2023-06-17T12:27:47.752Z,24.95
2023-06-17T12:30:14.733Z,24.96
2023-06-17T12:32:42.038Z,24.99
2023-06-17T12:35:12.448Z,24.90
2023-06-17T12:37:41.691Z,24.87
2023-06-17T12:40:09.137Z,24.91
2023-06-17T12:42:36.209Z,24.90
2023-06-17T12:45:04.188Z,24.89
2023-06-17T12:47:37.179Z,24.87
2023-06-17T12:50:10.593Z,24.83
2023-06-17T12:52:37.730Z,24.84
2023-06-17T12:55:05.343Z,24.84
2023-06-17T12:57:34.219Z,24.85
2023-06-17T13:00:05.488Z,24.79
2023-06-17T13:02:37.857Z,24.77
2023-06-17T13:05:07.837Z,24.72
2023-06-17T13:07:36.591Z,24.66
2023-06-17T13:46:25.396Z,24.56
2023-06-17T13:48:54.774Z,24.51
2023-06-17T13:51:24.696Z,24.45
2023-06-17T13:53:54.299Z,24.42
2023-06-17T13:56:21.026Z,24.41
2023-06-17T13:58:50.570Z,24.39
2023-06-17T14:01:20.150Z,24.37
2023-06-17T14:03:48.416Z,24.34
2023-06-17T14:06:15.343Z,24.28
2023-06-17T14:08:42.213Z,24.22
2023-06-17T14:11:09.212Z,24.19
2023-06-17T14:13:35.777Z,24.16
2023-06-17T14:16:07.682Z,24.15
2023-06-17T14:18:37.064Z,24.16
2023-06-17T14:21:03.556Z,24.18
2023-06-17T14:23:34.214Z,24.18
2023-06-17T14:26:00.857Z,24.16
2023-06-17T14:28:27.510Z,24.07
2023-06-17T14:30:56.756Z,24.03
2023-06-17T14:33:23.446Z,23.99
2023-06-17T14:35:49.899Z,23.96
2023-06-17T14:38:16.443Z,23.96
2023-06-17T14:40:45.364Z,23.98
2023-06-17T14:43:12.005Z,23.97
2023-06-17T14:45:40.534Z,23.93
2023-06-17T14:48:09.779Z,23.94
2023-06-17T14:50:41.714Z,23.93
2023-06-17T14:53:08.988Z,23.94
2023-06-17T14:55:40.371Z,23.93
2023-06-17T14:58:09.394Z,23.95
2023-06-17T15:00:36.317Z,23.94
2023-06-17T15:03:09.287Z,23.90
2023-06-17T15:05:38.034Z,23.83
2023-06-17T15:08:09.704Z,23.80
2023-06-17T15:10:36.616Z,23.77
2023-06-17T15:13:05.567Z,23.69
2023-06-17T15:15:37.636Z,23.62
2023-06-17T16:19:40.973Z,23.62
2023-06-17T16:22:10.334Z,23.62
2023-06-17T16:24:37.996Z,23.64
2023-06-17T16:27:04.903Z,23.67
2023-06-17T16:29:36.164Z,23.65
2023-06-17T16:32:02.986Z,23.63
2023-06-17T16:34:29.695Z,23.68
2023-06-17T16:36:59.514Z,23.67
2023-06-17T16:39:29.451Z,23.67
2023-06-17T16:42:07.864Z,23.69
2023-06-17T16:44:38.023Z,23.67
2023-06-17T16:47:05.596Z,23.69
2023-06-17T16:49:32.043Z,23.65
2023-06-17T16:52:02.006Z,23.63
2023-06-17T16:54:28.827Z,23.62
2023-06-17T16:56:55.483Z,23.60
2023-06-17T16:59:23.037Z,23.58
2023-06-17T17:01:49.615Z,23.56
2023-06-17T17:04:16.222Z,23.56
2023-06-17T17:06:46.138Z,23.53
2023-06-17T17:09:15.582Z,23.47
2023-06-17T17:11:44.714Z,23.44
2023-06-17T17:14:11.288Z,23.40
2023-06-17T17:16:40.586Z,23.37
2023-06-17T17:19:07.377Z,23.34
2023-06-17T17:21:37.007Z,23.32
2023-06-17T17:24:06.160Z,23.30
2023-06-17T17:26:37.217Z,23.31
2023-06-17T17:29:06.072Z,23.31
2023-06-17T17:31:35.256Z,23.30
2023-06-17T17:34:01.990Z,23.28
2023-06-17T17:36:28.649Z,23.24
2023-06-17T17:38:57.628Z,23.23
2023-06-17T17:41:25.986Z,23.19
2023-06-17T17:43:52.578Z,23.18
2023-06-17T17:46:21.764Z,23.17
2023-06-17T17:48:48.452Z,23.16
2023-06-17T17:51:17.389Z,23.15
2023-06-17T17:53:43.900Z,23.14
2023-06-17T17:56:12.985Z,23.12
2023-06-17T17:58:39.444Z,23.11
2023-06-17T18:01:05.907Z,23.09
2023-06-17T18:03:32.610Z,23.08
2023-06-17T18:06:01.263Z,23.06
2023-06-17T18:08:27.943Z,23.04
2023-06-17T18:10:56.444Z,23.00
2023-06-17T18:13:27.459Z,22.98
2023-06-17T18:15:54.025Z,22.96
2023-06-17T18:18:21.004Z,22.93
2023-06-17T18:20:48.232Z,22.88
2023-06-17T18:23:17.486Z,22.83
2023-06-17T18:26:29.906Z,22.77
2023-06-17T18:28:58.088Z,22.72
2023-06-17T18:31:25.112Z,22.68
2023-06-17T18:33:54.689Z,22.62
2023-06-17T18:36:21.520Z,22.58
2023-06-17T18:38:57.455Z,22.55
2023-06-17T18:41:24.852Z,22.53
2023-06-17T18:43:54.712Z,22.51
2023-06-17T18:46:21.976Z,22.46
2023-06-17T18:49:00.234Z,22.41
2023-06-17T18:51:27.109Z,22.39
2023-06-17T18:53:53.741Z,22.34
2023-06-17T18:56:22.671Z,22.30
2023-06-17T18:58:55.106Z,22.26
2023-06-17T19:01:21.497Z,22.22
2023-06-17T19:03:48.324Z,22.19
2023-06-17T19:06:14.922Z,22.16
2023-06-17T19:08:41.869Z,22.06
2023-06-17T19:11:18.048Z,22.03
2023-06-17T19:13:49.943Z,22.00
2023-06-17T19:16:19.281Z,21.94
2023-06-17T19:18:46.330Z,21.88
2023-06-17T19:21:13.291Z,21.84
2023-06-17T19:23:40.044Z,21.81
2023-06-17T19:26:11.558Z,21.76
2023-06-17T19:28:38.331Z,21.74
2023-06-17T19:31:05.354Z,21.71
2023-06-17T19:33:37.226Z,21.64
2023-06-17T19:36:04.462Z,21.59
2023-06-17T19:38:32.830Z,21.53
2023-06-17T19:41:00.344Z,21.46
2023-06-17T19:43:33.494Z,21.35
2023-06-17T19:46:01.901Z,21.17
2023-06-17T19:48:29.090Z,21.02
2023-06-17T20:10:08.523Z,21.33
2023-06-17T20:12:36.480Z,21.39
2023-06-17T20:15:06.654Z,21.47
2023-06-17T20:17:33.338Z,21.52
2023-06-17T20:20:03.744Z,21.56
2023-06-17T20:22:30.332Z,21.60
2023-06-17T20:24:56.892Z,21.60
2023-06-17T20:27:25.459Z,21.61
2023-06-17T20:29:54.452Z,21.60
2023-06-17T20:32:26.619Z,21.56
2023-06-17T20:34:58.913Z,21.54
2023-06-17T20:37:31.032Z,21.52
2023-06-17T20:39:59.904Z,21.53
2023-06-17T20:42:26.585Z,21.54
2023-06-17T20:44:53.060Z,21.52
2023-06-17T20:47:22.325Z,21.50
2023-06-17T21:08:32.264Z,21.05
2023-06-17T21:10:59.223Z,21.02
2023-06-17T21:13:25.772Z,20.97
2023-06-17T21:15:55.176Z,20.93
2023-06-17T21:18:25.439Z,20.89
2023-06-17T21:20:52.722Z,20.85
2023-06-17T21:23:19.213Z,20.81
2023-06-17T21:25:46.126Z,20.77
2023-06-17T21:28:12.967Z,20.74
2023-06-17T21:30:46.598Z,20.72
2023-06-17T21:33:14.119Z,20.70
2023-06-17T21:35:43.545Z,20.67
2023-06-17T21:38:11.993Z,20.64
2023-06-17T21:40:40.738Z,20.62
2023-06-17T21:43:09.878Z,20.59
2023-06-17T21:45:38.627Z,20.57
2023-06-17T21:48:05.399Z,20.56
2023-06-17T21:50:34.860Z,20.55
2023-06-17T21:53:01.489Z,20.51
